createdAt,value
2023-02-17T00:09:33.934Z,92.59
2023-02-17T00:21:34.383Z,94.45
2023-02-17T00:33:34.849Z,92.56
2023-02-17T00:45:35.272Z,93.13
2023-02-17T00:57:35.749Z,95.71
2023-02-17T01:09:36.198Z,94.40
2023-02-17T01:21:36.661Z,94.29
2023-02-17T01:33:37.102Z,93.95
2023-02-17T01:45:37.568Z,93.15
2023-02-17T01:57:37.994Z,95.06
2023-02-17T02:09:38.451Z,92.34
2023-02-17T02:21:38.975Z,95.43
2023-02-17T02:33:39.351Z,94.78
2023-02-17T02:45:39.862Z,94.69
2023-02-17T02:57:40.271Z,93.30
2023-02-17T03:09:40.683Z,93.86
2023-02-17T03:21:41.149Z,94.13
2023-02-17T03:33:41.585Z,94.89
2023-02-17T03:45:42.081Z,92.89
2023-02-17T03:57:42.489Z,95.25
2023-02-17T04:09:42.965Z,95.24
2023-02-17T04:21:43.417Z,94.85
2023-02-17T04:33:43.864Z,93.54
2023-02-17T04:45:44.340Z,94.18
2023-02-17T04:57:44.760Z,94.83
2023-02-17T05:09:45.210Z,93.34
2023-02-17T05:21:45.661Z,93.17
2023-02-17T05:33:46.090Z,92.26
2023-02-17T05:45:46.574Z,94.40
2023-02-17T05:57:47.000Z,93.61
2023-02-17T06:09:47.509Z,95.18
2023-02-17T06:21:47.910Z,92.99
2023-02-17T06:33:48.364Z,93.45
2023-02-17T06:45:48.859Z,92.80
2023-02-17T06:57:49.300Z,94.53
2023-02-17T07:09:49.747Z,93.18
2023-02-17T07:21:50.197Z,91.14
2023-02-17T07:33:50.646Z,91.33
2023-02-17T07:45:51.151Z,92.00
2023-02-17T07:57:51.553Z,91.88
2023-02-17T08:09:51.977Z,88.57
2023-02-17T08:21:52.451Z,86.00
2023-02-17T08:33:52.964Z,80.81
2023-02-17T08:45:53.368Z,74.49
2023-02-17T08:57:53.822Z,76.08
2023-02-17T09:09:54.250Z,68.09
2023-02-17T09:21:54.777Z,65.55
2023-02-17T09:33:55.280Z,54.09
2023-02-17T09:45:55.655Z,35.90
2023-02-17T09:57:56.090Z,33.40
2023-02-17T10:09:56.573Z,32.42
2023-02-17T10:21:57.094Z,33.85
2023-02-17T10:33:57.404Z,34.73
2023-02-17T10:45:57.889Z,33.53
2023-02-17T10:57:58.342Z,33.49
2023-02-17T11:09:58.762Z,34.13
2023-02-17T11:21:59.252Z,33.78
2023-02-17T11:33:59.729Z,31.67
2023-02-17T11:46:00.998Z,31.96
2023-02-17T11:58:00.615Z,34.72
2023-02-17T12:10:01.030Z,34.17
2023-02-17T12:22:01.495Z,33.90
2023-02-17T12:34:01.943Z,34.54
2023-02-17T12:46:02.442Z,35.87
2023-02-17T12:58:02.828Z,37.71
2023-02-17T13:10:03.341Z,35.52
2023-02-17T13:22:03.799Z,34.09
2023-02-17T13:34:04.214Z,34.03
2023-02-17T13:46:04.937Z,35.16
2023-02-17T13:58:05.135Z,36.38
2023-02-17T14:10:05.595Z,38.17
2023-02-17T14:22:06.039Z,39.91
2023-02-17T14:34:06.479Z,39.24
2023-02-17T14:46:07.306Z,39.98
2023-02-17T14:58:07.436Z,41.45
2023-02-17T15:10:07.870Z,42.31
2023-02-17T15:22:08.312Z,44.02
2023-02-17T15:34:08.778Z,43.47
2023-02-17T15:46:09.390Z,48.19
2023-02-17T15:58:09.656Z,52.47
2023-02-17T16:10:10.132Z,56.10
2023-02-17T16:22:10.560Z,57.70
2023-02-17T16:34:11.044Z,59.57
2023-02-17T16:46:11.606Z,58.80
2023-02-17T16:58:11.926Z,62.62
2023-02-17T17:10:16.528Z,63.28
2023-02-17T17:22:12.905Z,62.90
2023-02-17T17:34:13.317Z,63.78
2023-02-17T17:46:13.811Z,64.62
2023-02-17T17:58:14.214Z,64.53
2023-02-17T18:10:14.699Z,68.05
2023-02-17T18:22:15.132Z,55.99
2023-02-17T18:34:15.549Z,47.66
2023-02-17T18:46:16.067Z,47.29
2023-02-17T18:58:16.447Z,48.76
2023-02-17T19:10:16.901Z,47.76
2023-02-17T19:22:17.461Z,48.17
2023-02-17T19:34:17.824Z,50.19
2023-02-17T19:46:18.345Z,50.75
2023-02-17T19:58:18.765Z,51.72
2023-02-17T20:10:19.216Z,53.42
2023-02-17T20:22:19.646Z,52.72
2023-02-17T20:34:20.120Z,52.89
2023-02-17T20:46:20.590Z,54.37
2023-02-17T20:58:20.988Z,52.88
2023-02-17T21:10:21.773Z,52.44
2023-02-17T21:22:21.927Z,53.20
2023-02-17T21:34:22.368Z,57.07
2023-02-17T21:46:22.840Z,63.29
2023-02-17T21:58:23.281Z,65.84
2023-02-17T22:10:23.702Z,68.25
2023-02-17T22:22:24.177Z,68.98
2023-02-17T22:34:24.620Z,74.01
2023-02-17T22:46:25.049Z,72.51
2023-02-17T22:58:25.552Z,76.24
2023-02-17T23:10:25.988Z,75.00
2023-02-17T23:22:26.421Z,76.12
2023-02-17T23:34:26.882Z,77.03
2023-02-17T23:46:27.395Z,77.21
2023-02-17T23:58:27.778Z,80.66
